Wetterdaten: Montag, 01.12.2003
Datum Zeit Temp. A Sch. Temp. A Son. Feuchte A. Luftdruck Regen Wind Richtung Richtung Sonnenschein Helligkeit Taupunkt Windchill
01.12.2003 00:00 5,2 C 5,8 C 93 % 1008 hPa 0,0 l/m 1,9 m/s (1 Bft) O-SO22.5 115 0,00 min 0 lux 4,2 C 4,8 C
01.12.2003 00:05 5,2 C 5,8 C 93 % 1008 hPa 0,0 l/m 2,7 m/s (1 Bft) O-SO22.5 105 0,00 min 0 lux 4,2 C 2,6 C
01.12.2003 00:10 5,2 C 5,8 C 93 % 1007 hPa 0,0 l/m 3,2 m/s (1 Bft) O-SO22.5 110 0,00 min 0 lux 4,2 C 1,3 C
01.12.2003 00:15 5,2 C 5,8 C 93 % 1007 hPa 0,0 l/m 2,8 m/s (1 Bft) O-SO22.5 115 0,00 min 0 lux 4,2 C 2,4 C
01.12.2003 00:20 5,2 C 5,8 C 93 % 1007 hPa 0,0 l/m 4,0 m/s (1 Bft) O-SO22.5 105 0,00 min 0 lux 4,2 C -0,4 C
01.12.2003 00:25 5,2 C 5,8 C 93 % 1007 hPa 0,0 l/m 4,2 m/s (1 Bft) O-SO22.5 105 0,00 min 0 lux 4,2 C -0,7 C
01.12.2003 00:30 5,2 C 5,8 C 93 % 1007 hPa 0,0 l/m 3,4 m/s (1 Bft) O45 90 0,00 min 0 lux 4,2 C 0,9 C
01.12.2003 00:35 5,2 C 5,7 C 93 % 1007 hPa 0,0 l/m 3,7 m/s (1 Bft) O45 85 0,00 min 0 lux 4,2 C 0,3 C
01.12.2003 00:40 5,1 C 5,7 C 93 % 1007 hPa 0,0 l/m 3,5 m/s (1 Bft) O45 95 0,00 min 0 lux 4,1 C 0,5 C
01.12.2003 00:45 5,1 C 5,7 C 93 % 1007 hPa 0,0 l/m 3,6 m/s (1 Bft) O45 95 0,00 min 0 lux 4,1 C 0,2 C
01.12.2003 00:50 5,0 C 5,7 C 93 % 1007 hPa 0,0 l/m 3,4 m/s (1 Bft) O67.5 95 0,00 min 0 lux 4,0 C 0,5 C
01.12.2003 00:55 5,0 C 5,7 C 92 % 1007 hPa 0,0 l/m 4,0 m/s (1 Bft) O-SO22.5 115 0,00 min 0 lux 3,8 C -0,6 C
01.12.2003 01:00 5,0 C 5,7 C 92 % 1007 hPa 0,0 l/m 3,8 m/s (1 Bft) O-SO22.5 110 0,00 min 0 lux 3,8 C -0,3 C
01.12.2003 01:05 5,0 C 5,7 C 92 % 1007 hPa 0,0 l/m 4,2 m/s (1 Bft) O-SO45 115 0,00 min 0 lux 3,8 C -1,0 C
01.12.2003 01:10 4,9 C 5,6 C 93 % 1007 hPa 0,0 l/m 4,7 m/s (1 Bft) O-SO22.5 115 0,00 min 0 lux 3,9 C -2,0 C
01.12.2003 01:15 4,9 C 5,6 C 93 % 1007 hPa 0,0 l/m 4,1 m/s (1 Bft) O-SO45 105 0,00 min 0 lux 3,9 C -0,8 C
01.12.2003 01:20 4,9 C 5,6 C 93 % 1007 hPa 0,0 l/m 4,8 m/s (1 Bft) O-SO22.5 115 0,00 min 0 lux 3,9 C -2,2 C
01.12.2003 01:25 4,9 C 5,6 C 93 % 1007 hPa 0,0 l/m 4,6 m/s (1 Bft) O22.5 100 0,00 min 0 lux 3,9 C -1,8 C
01.12.2003 01:30 4,9 C 5,6 C 93 % 1007 hPa 0,0 l/m 4,3 m/s (1 Bft) O-SO22.5 110 0,00 min 0 lux 3,9 C -1,3 C
01.12.2003 01:35 4,8 C 5,6 C 93 % 1007 hPa 0,0 l/m 2,7 m/s (1 Bft) O45 100 0,00 min 0 lux 3,8 C 2,0 C
01.12.2003 01:40 4,8 C 5,6 C 93 % 1007 hPa 0,0 l/m 5,0 m/s (1 Bft) O67.5 90 0,00 min 0 lux 3,8 C -2,6 C
01.12.2003 01:45 4,8 C 5,5 C 93 % 1007 hPa 0,0 l/m 4,9 m/s (1 Bft) O22.5 95 0,00 min 0 lux 3,8 C -2,4 C
01.12.2003 01:50 4,8 C 5,5 C 93 % 1007 hPa 0,0 l/m 4,6 m/s (1 Bft) O22.5 100 0,00 min 0 lux 3,8 C -1,9 C
01.12.2003 01:55 4,8 C 5,5 C 93 % 1007 hPa 0,0 l/m 5,3 m/s (1 Bft) O-SO45 105 0,00 min 0 lux 3,8 C -3,1 C
01.12.2003 02:00 4,8 C 5,5 C 93 % 1007 hPa 0,0 l/m 3,7 m/s (1 Bft) O-SO45 105 0,00 min 0 lux 3,8 C -0,3 C
01.12.2003 02:05 4,8 C 5,5 C 93 % 1007 hPa 0,0 l/m 3,6 m/s (1 Bft) O22.5 100 0,00 min 0 lux 3,8 C -0,1 C
01.12.2003 02:10 4,8 C 5,5 C 93 % 1007 hPa 0,0 l/m 3,4 m/s (1 Bft) O-SO22.5 115 0,00 min 0 lux 3,8 C 0,3 C
01.12.2003 02:15 4,8 C 5,5 C 93 % 1007 hPa 0,0 l/m 3,1 m/s (1 Bft) O-SO22.5 105 0,00 min 0 lux 3,8 C 1,0 C
01.12.2003 02:20 4,8 C 5,5 C 93 % 1007 hPa 0,0 l/m 3,7 m/s (1 Bft) O-SO45 110 0,00 min 0 lux 3,8 C -0,2 C
01.12.2003 02:25 4,8 C 5,5 C 93 % 1007 hPa 0,0 l/m 4,5 m/s (1 Bft) O67.5 95 0,00 min 0 lux 3,8 C -1,7 C
01.12.2003 02:30 4,8 C 5,5 C 93 % 1007 hPa 0,0 l/m 2,2 m/s (1 Bft) O-SO22.5 115 0,00 min 0 lux 3,8 C 3,5 C
01.12.2003 02:35 4,8 C 5,5 C 93 % 1007 hPa 0,0 l/m 2,6 m/s (1 Bft) O67.5 100 0,00 min 0 lux 3,8 C 2,3 C
01.12.2003 02:40 4,8 C 5,5 C 93 % 1007 hPa 0,0 l/m 2,8 m/s (1 Bft) O45 90 0,00 min 0 lux 3,8 C 1,7 C
01.12.2003 02:45 4,8 C 5,5 C 93 % 1007 hPa 0,0 l/m 3,2 m/s (1 Bft) O22.5 90 0,00 min 0 lux 3,8 C 0,9 C
01.12.2003 02:50 4,8 C 5,5 C 93 % 1007 hPa 0,0 l/m 3,3 m/s (1 Bft) O45 90 0,00 min 0 lux 3,8 C 0,5 C
01.12.2003 02:55 4,8 C 5,5 C 93 % 1007 hPa 0,0 l/m 2,8 m/s (1 Bft) O22.5 100 0,00 min 0 lux 3,8 C 1,9 C
01.12.2003 03:00 4,8 C 5,5 C 93 % 1007 hPa 0,0 l/m 2,7 m/s (1 Bft) O45 90 0,00 min 0 lux 3,8 C 2,0 C
01.12.2003 03:05 4,9 C 5,5 C 93 % 1007 hPa 0,0 l/m 2,7 m/s (1 Bft) O22.5 95 0,00 min 0 lux 3,9 C 2,2 C
01.12.2003 03:10 5,0 C 5,5 C 92 % 1007 hPa 0,0 l/m 3,8 m/s (1 Bft) O-NO45 70 0,00 min 0 lux 3,8 C -0,1 C
01.12.2003 03:15 5,0 C 5,5 C 92 % 1007 hPa 0,0 l/m 2,1 m/s (1 Bft) O-SO22.5 105 0,00 min 0 lux 3,8 C 3,9 C
01.12.2003 03:20 5,1 C 5,5 C 92 % 1007 hPa 0,0 l/m 2,9 m/s (1 Bft) O-NO45 65 0,00 min 0 lux 3,9 C 1,8 C
01.12.2003 03:25 5,0 C 5,5 C 91 % 1007 hPa 0,0 l/m 3,1 m/s (1 Bft) O-NO45 65 0,00 min 0 lux 3,7 C 1,4 C
01.12.2003 03:30 5,0 C 5,5 C 91 % 1007 hPa 0,0 l/m 4,6 m/s (1 Bft) O-NO45 60 0,00 min 0 lux 3,7 C -1,7 C
01.12.2003 03:35 5,0 C 5,5 C 91 % 1007 hPa 0,0 l/m 3,7 m/s (1 Bft) O-NO45 70 0,00 min 0 lux 3,7 C -0,0 C
01.12.2003 03:40 5,0 C 5,5 C 91 % 1006 hPa 0,0 l/m 4,0 m/s (1 Bft) O45 90 0,00 min 0 lux 3,7 C -0,6 C
01.12.2003 03:45 5,0 C 5,5 C 90 % 1006 hPa 0,0 l/m 4,4 m/s (1 Bft) O45 80 0,00 min 0 lux 3,5 C -1,4 C
01.12.2003 03:50 5,0 C 5,5 C 90 % 1006 hPa 0,0 l/m 5,4 m/s (1 Bft) O-NO45 75 0,00 min 0 lux 3,5 C -3,0 C
01.12.2003 03:55 5,0 C 5,5 C 90 % 1006 hPa 0,0 l/m 5,1 m/s (1 Bft) O67.5 90 0,00 min 0 lux 3,5 C -2,6 C
01.12.2003 04:00 5,0 C 5,5 C 90 % 1006 hPa 0,0 l/m 4,9 m/s (1 Bft) O45 80 0,00 min 0 lux 3,5 C -2,2 C
01.12.2003 04:05 5,0 C 5,5 C 89 % 1006 hPa 0,0 l/m 4,2 m/s (1 Bft) O45 90 0,00 min 0 lux 3,3 C -0,9 C
01.12.2003 04:10 5,1 C 5,5 C 89 % 1006 hPa 0,0 l/m 4,4 m/s (1 Bft) O22.5 100 0,00 min 0 lux 3,4 C -1,2 C
01.12.2003 04:15 5,1 C 5,5 C 89 % 1006 hPa 0,0 l/m 4,2 m/s (1 Bft) O-SO45 105 0,00 min 0 lux 3,4 C -0,8 C
01.12.2003 04:20 5,1 C 5,5 C 89 % 1006 hPa 0,0 l/m 3,9 m/s (1 Bft) O-SO22.5 115 0,00 min 0 lux 3,4 C -0,3 C
01.12.2003 04:25 5,1 C 5,5 C 88 % 1006 hPa 0,0 l/m 4,0 m/s (1 Bft) O22.5 100 0,00 min 0 lux 3,3 C -0,5 C
01.12.2003 04:30 5,1 C 5,5 C 88 % 1006 hPa 0,0 l/m 3,8 m/s (1 Bft) O22.5 95 0,00 min 0 lux 3,3 C -0,0 C
01.12.2003 04:35 5,1 C 5,5 C 88 % 1006 hPa 0,0 l/m 3,6 m/s (1 Bft) O45 80 0,00 min 0 lux 3,3 C 0,4 C
01.12.2003 04:40 5,1 C 5,5 C 88 % 1006 hPa 0,0 l/m 3,6 m/s (1 Bft) O45 80 0,00 min 0 lux 3,3 C 0,4 C
01.12.2003 04:45 5,0 C 5,6 C 88 % 1006 hPa 0,0 l/m 4,2 m/s (1 Bft) O-NO45 70 0,00 min 0 lux 3,2 C -1,0 C
01.12.2003 04:50 5,0 C 5,6 C 88 % 1006 hPa 0,0 l/m 3,5 m/s (1 Bft) O-NO67.5 70 0,00 min 0 lux 3,2 C 0,5 C
01.12.2003 04:55 5,0 C 5,6 C 88 % 1006 hPa 0,0 l/m 2,5 m/s (1 Bft) O45 95 0,00 min 0 lux 3,2 C 2,7 C
01.12.2003 05:00 5,0 C 5,6 C 88 % 1006 hPa 0,0 l/m 3,4 m/s (1 Bft) O22.5 95 0,00 min 0 lux 3,2 C 0,6 C
01.12.2003 05:05 5,0 C 5,6 C 88 % 1006 hPa 0,0 l/m 2,8 m/s (1 Bft) O22.5 80 0,00 min 0 lux 3,2 C 2,0 C
01.12.2003 05:10 5,0 C 5,6 C 88 % 1006 hPa 0,0 l/m 2,9 m/s (1 Bft) O45 90 0,00 min 0 lux 3,2 C 1,7 C
01.12.2003 05:15 5,0 C 5,5 C 88 % 1006 hPa 0,0 l/m 3,5 m/s (1 Bft) O-NO45 70 0,00 min 0 lux 3,2 C 0,4 C
01.12.2003 05:20 5,0 C 5,5 C 88 % 1006 hPa 0,0 l/m 4,1 m/s (1 Bft) O-NO45 70 0,00 min 0 lux 3,2 C -0,7 C
01.12.2003 05:25 5,0 C 5,5 C 88 % 1006 hPa 0,0 l/m 2,9 m/s (1 Bft) O-NO45 70 0,00 min 0 lux 3,2 C 1,7 C
01.12.2003 05:30 5,0 C 5,5 C 88 % 1006 hPa 0,0 l/m 3,1 m/s (1 Bft) O45 95 0,00 min 0 lux 3,2 C 1,3 C
01.12.2003 05:35 5,0 C 5,5 C 88 % 1006 hPa 0,0 l/m 1,8 m/s (1 Bft) O22.5 80 0,00 min 0 lux 3,2 C 4,9 C
01.12.2003 05:40 5,0 C 5,5 C 88 % 1006 hPa 0,0 l/m 2,9 m/s (1 Bft) O22.5 85 0,00 min 0 lux 3,2 C 1,7 C
01.12.2003 05:45 5,0 C 5,5 C 88 % 1006 hPa 0,0 l/m 2,9 m/s (1 Bft) O-NO45 75 0,00 min 0 lux 3,2 C 1,9 C
01.12.2003 05:50 4,9 C 5,5 C 88 % 1006 hPa 0,0 l/m 3,4 m/s (1 Bft) O45 80 0,00 min 0 lux 3,1 C 0,5 C
01.12.2003 05:55 4,9 C 5,5 C 88 % 1006 hPa 0,0 l/m 3,1 m/s (1 Bft) O-NO22.5 75 0,00 min 0 lux 3,1 C 1,3 C
01.12.2003 06:00 5,0 C 5,4 C 87 % 1006 hPa 0,0 l/m 3,1 m/s (1 Bft) O-NO22.5 75 0,00 min 0 lux 3,0 C 1,4 C
01.12.2003 06:05 5,0 C 5,5 C 87 % 1006 hPa 0,0 l/m 3,0 m/s (1 Bft) O22.5 80 0,00 min 0 lux 3,0 C 1,5 C
01.12.2003 06:10 5,0 C 5,5 C 87 % 1006 hPa 0,0 l/m 1,8 m/s (1 Bft) O22.5 90 0,00 min 0 lux 3,0 C 5,0 C
01.12.2003 06:15 5,0 C 5,5 C 87 % 1006 hPa 0,0 l/m 3,4 m/s (1 Bft) O22.5 85 0,00 min 0 lux 3,0 C 0,7 C
01.12.2003 06:20 5,0 C 5,5 C 87 % 1006 hPa 0,0 l/m 2,3 m/s (1 Bft) O22.5 90 0,00 min 0 lux 3,0 C 3,3 C
01.12.2003 06:25 5,0 C 5,5 C 87 % 1006 hPa 0,0 l/m 1,4 m/s (1 Bft) O45 80 0,00 min 0 lux 3,0 C 5,0 C
01.12.2003 06:30 5,0 C 5,4 C 87 % 1006 hPa 0,0 l/m 3,5 m/s (1 Bft) O22.5 90 0,00 min 0 lux 3,0 C 0,4 C
01.12.2003 06:35 5,0 C 5,4 C 87 % 1006 hPa 0,0 l/m 1,6 m/s (1 Bft) O-SO 105 0,00 min 0 lux 3,0 C 5,0 C
01.12.2003 06:40 5,0 C 5,4 C 86 % 1006 hPa 0,0 l/m 2,1 m/s (1 Bft) O-NO22.5 65 0,00 min 0 lux 2,9 C 3,9 C
01.12.2003 06:45 5,0 C 5,5 C 86 % 1006 hPa 0,0 l/m 0,1 m/s (0 Bft) O 80 0,00 min 0 lux 2,9 C 5,0 C
01.12.2003 06:50 5,0 C 5,4 C 86 % 1006 hPa 0,0 l/m 1,9 m/s (1 Bft) O-NO22.5 70 0,00 min 0 lux 2,9 C 4,5 C
01.12.2003 06:55 5,0 C 5,4 C 86 % 1006 hPa 0,0 l/m 0,3 m/s (0 Bft) O 80 0,00 min 0 lux 2,9 C 5,0 C
01.12.2003 07:00 5,0 C 5,4 C 86 % 1006 hPa 0,0 l/m 1,0 m/s (0 Bft) O 100 0,00 min 0 lux 2,9 C 5,0 C
01.12.2003 07:05 5,0 C 5,4 C 86 % 1006 hPa 0,0 l/m 0,0 m/s (0 Bft) O 100 0,00 min 0 lux 2,9 C 5,0 C
01.12.2003 07:10 5,0 C 5,5 C 87 % 1006 hPa 0,0 l/m 0,0 m/s (0 Bft) O 100 0,00 min 0 lux 3,0 C 5,0 C
01.12.2003 07:15 4,8 C 5,4 C 88 % 1006 hPa 0,0 l/m 1,5 m/s (1 Bft) O 95 0,00 min 0 lux 3,0 C 4,8 C
01.12.2003 07:20 4,8 C 5,4 C 88 % 1006 hPa 0,0 l/m 0,0 m/s (0 Bft) O 80 0,00 min 0 lux 3,0 C 4,8 C
01.12.2003 07:25 4,8 C 5,3 C 88 % 1006 hPa 0,0 l/m 0,0 m/s (0 Bft) O 80 0,00 min 0 lux 3,0 C 4,8 C
01.12.2003 07:30 4,8 C 5,3 C 88 % 1006 hPa 0,0 l/m 0,0 m/s (0 Bft) O 100 0,00 min 0 lux 3,0 C 4,8 C
01.12.2003 07:35 4,7 C 5,3 C 88 % 1006 hPa 0,0 l/m 0,1 m/s (0 Bft) O 85 0,00 min 0 lux 2,9 C 4,7 C
01.12.2003 07:40 4,7 C 5,3 C 88 % 1006 hPa 0,0 l/m 1,5 m/s (1 Bft) O45 85 0,00 min 0 lux 2,9 C 4,7 C
01.12.2003 07:45 4,8 C 5,3 C 88 % 1006 hPa 0,0 l/m 0,0 m/s (0 Bft) O-SO 105 0,00 min 0 lux 3,0 C 4,8 C
01.12.2003 07:50 4,7 C 5,3 C 88 % 1006 hPa 0,0 l/m 2,7 m/s (1 Bft) O-NO45 60 0,00 min 66 lux 2,9 C 2,0 C
01.12.2003 07:55 4,7 C 5,2 C 88 % 1006 hPa 0,0 l/m 3,4 m/s (1 Bft) O-NO45 60 0,00 min 114 lux 2,9 C 0,3 C
01.12.2003 08:00 4,8 C 5,2 C 88 % 1006 hPa 0,0 l/m 1,1 m/s (1 Bft) O 95 0,00 min 167 lux 3,0 C 4,8 C
01.12.2003 08:05 4,7 C 5,1 C 87 % 1006 hPa 0,0 l/m 2,5 m/s (1 Bft) O-SO 105 0,00 min 350 lux 2,7 C 2,5 C
01.12.2003 08:10 4,7 C 5,1 C 87 % 1006 hPa 0,0 l/m 1,3 m/s (1 Bft) O 80 0,00 min 380 lux 2,7 C 4,7 C
01.12.2003 08:15 4,5 C 5,0 C 87 % 1006 hPa 0,0 l/m 0,3 m/s (0 Bft) O22.5 85 0,00 min 409 lux 2,5 C 4,5 C
01.12.2003 08:20 4,6 C 4,9 C 87 % 1007 hPa 0,0 l/m 1,3 m/s (1 Bft) O 100 0,00 min 709 lux 2,6 C 4,6 C
01.12.2003 08:25 4,5 C 4,9 C 87 % 1007 hPa 0,0 l/m 1,5 m/s (1 Bft) O22.5 90 0,00 min 1,01 klux 2,5 C 4,5 C
01.12.2003 08:30 4,3 C 4,8 C 87 % 1007 hPa 0,0 l/m 0,4 m/s (0 Bft) O22.5 90 0,00 min 1,34 klux 2,3 C 4,3 C
01.12.2003 08:35 4,4 C 4,7 C 87 % 1007 hPa 0,0 l/m 2,1 m/s (1 Bft) O-NO22.5 70 0,00 min 1,69 klux 2,4 C 3,4 C
01.12.2003 08:40 4,3 C 4,7 C 87 % 1007 hPa 0,0 l/m 1,6 m/s (1 Bft) O-NO22.5 70 0,00 min 2,11 klux 2,3 C 4,3 C
01.12.2003 08:45 4,3 C 4,7 C 87 % 1007 hPa 0,0 l/m 1,9 m/s (1 Bft) NO22.5 50 0,00 min 2,84 klux 2,3 C 3,8 C
01.12.2003 08:50 4,4 C 4,7 C 87 % 1007 hPa 0,0 l/m 2,5 m/s (1 Bft) O-NO45 75 0,00 min 3,41 klux 2,4 C 2,2 C
01.12.2003 08:55 4,5 C 4,7 C 87 % 1007 hPa 0,0 l/m 1,1 m/s (1 Bft) O 95 0,00 min 4,21 klux 2,5 C 4,5 C
01.12.2003 09:00 4,5 C 4,8 C 87 % 1007 hPa 0,0 l/m 1,3 m/s (1 Bft) O22.5 85 0,00 min 5,40 klux 2,5 C 4,5 C
01.12.2003 09:05 4,5 C 4,8 C 87 % 1007 hPa 0,0 l/m 1,3 m/s (1 Bft) O-NO22.5 75 0,00 min 5,89 klux 2,5 C 4,5 C
01.12.2003 09:10 4,6 C 4,8 C 87 % 1007 hPa 0,0 l/m 1,8 m/s (1 Bft) O-NO22.5 70 0,00 min 6,61 klux 2,6 C 4,6 C
01.12.2003 09:15 4,6 C 4,9 C 87 % 1007 hPa 0,0 l/m 1,4 m/s (1 Bft) O45 80 0,00 min 6,95 klux 2,6 C 4,6 C
01.12.2003 09:20 4,8 C 5,0 C 87 % 1007 hPa 0,0 l/m 1,7 m/s (1 Bft) O-NO22.5 60 0,00 min 7,61 klux 2,8 C 4,8 C
01.12.2003 09:25 4,9 C 5,0 C 86 % 1007 hPa 0,0 l/m 1,5 m/s (1 Bft) O-NO22.5 60 0,00 min 8,05 klux 2,8 C 4,9 C
01.12.2003 09:30 5,0 C 5,1 C 85 % 1007 hPa 0,0 l/m 0,0 m/s (0 Bft) O 80 0,00 min 8,74 klux 2,7 C 5,0 C
01.12.2003 09:35 5,0 C 5,2 C 85 % 1007 hPa 0,0 l/m 0,0 m/s (0 Bft) O 80 0,00 min 9,6 klux 2,7 C 5,0 C
01.12.2003 09:40 4,9 C 5,3 C 86 % 1007 hPa 0,0 l/m 0,1 m/s (0 Bft) O22.5 90 0,00 min 10,7 klux 2,8 C 4,9 C
01.12.2003 09:45 5,0 C 5,5 C 86 % 1008 hPa 0,0 l/m 0,0 m/s (0 Bft) O-SO 105 0,00 min 11,9 klux 2,9 C 5,0 C
01.12.2003 09:50 5,2 C 5,6 C 86 % 1008 hPa 0,0 l/m 0,0 m/s (0 Bft) O-SO 105 0,00 min 13,2 klux 3,1 C 5,2 C
01.12.2003 09:55 5,3 C 5,7 C 86 % 1008 hPa 0,0 l/m 0,0 m/s (0 Bft) O-SO 105 0,00 min 13,3 klux 3,2 C 5,3 C
01.12.2003 10:00 5,5 C 5,8 C 86 % 1008 hPa 0,0 l/m 0,0 m/s (0 Bft) O-SO 105 0,00 min 13,0 klux 3,3 C 5,5 C
01.12.2003 10:05 5,5 C 5,9 C 85 % 1008 hPa 0,0 l/m 0,6 m/s (0 Bft) SO 130 0,00 min 11,8 klux 3,2 C 5,5 C
01.12.2003 10:10 5,6 C 6,0 C 85 % 1008 hPa 0,0 l/m 1,2 m/s (1 Bft) O-SO22.5 110 0,00 min 11,9 klux 3,3 C 5,6 C
01.12.2003 10:15 5,9 C 6,1 C 84 % 1008 hPa 0,0 l/m 1,9 m/s (1 Bft) NO45 45 0,00 min 12,3 klux 3,4 C 5,6 C
01.12.2003 10:20 6,0 C 6,3 C 83 % 1008 hPa 0,0 l/m 1,3 m/s (1 Bft) O45 80 0,00 min 11,9 klux 3,3 C 6,0 C
01.12.2003 10:25 6,1 C 6,3 C 80 % 1008 hPa 0,0 l/m 2,8 m/s (1 Bft) NO45 55 0,00 min 9,7 klux 2,9 C 3,2 C
01.12.2003 10:30 6,2 C 6,4 C 80 % 1008 hPa 0,0 l/m 1,5 m/s (1 Bft) O22.5 85 0,00 min 8,06 klux 3,0 C 6,2 C
01.12.2003 10:35 6,1 C 6,4 C 79 % 1008 hPa 0,0 l/m 1,6 m/s (1 Bft) O-NO22.5 60 0,00 min 8,33 klux 2,7 C 6,1 C
01.12.2003 10:40 6,1 C 6,4 C 79 % 1008 hPa 0,0 l/m 1,3 m/s (1 Bft) NO22.5 45 0,00 min 8,53 klux 2,7 C 6,1 C
01.12.2003 10:45 6,2 C 6,5 C 79 % 1008 hPa 0,0 l/m 1,8 m/s (1 Bft) O-NO45 65 0,00 min 7,77 klux 2,8 C 6,2 C
01.12.2003 10:50 6,2 C 6,5 C 78 % 1008 hPa 0,0 l/m 2,0 m/s (1 Bft) O-NO22.5 70 0,00 min 7,74 klux 2,7 C 5,5 C
01.12.2003 10:55 6,2 C 6,5 C 78 % 1008 hPa 0,0 l/m 2,0 m/s (1 Bft) O-NO22.5 70 0,00 min 7,57 klux 2,7 C 5,5 C
01.12.2003 11:00 6,2 C 6,5 C 78 % 1008 hPa 0,0 l/m 2,3 m/s (1 Bft) NO22.5 45 0,00 min 7,83 klux 2,7 C 4,6 C
01.12.2003 11:05 6,1 C 6,5 C 78 % 1008 hPa 0,0 l/m 2,7 m/s (1 Bft) O-NO45 60 0,00 min 7,92 klux 2,6 C 3,4 C
01.12.2003 11:10 6,1 C 6,6 C 78 % 1008 hPa 0,0 l/m 2,4 m/s (1 Bft) O22.5 90 0,00 min 7,24 klux 2,6 C 4,2 C
01.12.2003 11:15 6,1 C 6,6 C 77 % 1008 hPa 0,0 l/m 2,8 m/s (1 Bft) O22.5 100 0,00 min 8,40 klux 2,4 C 3,2 C
01.12.2003 11:20 6,2 C 6,6 C 77 % 1008 hPa 0,0 l/m 2,8 m/s (1 Bft) O22.5 100 0,00 min 10,3 klux 2,5 C 3,3 C
01.12.2003 11:25 6,4 C 6,7 C 76 % 1008 hPa 0,0 l/m 3,2 m/s (1 Bft) O45 85 0,00 min 14,3 klux 2,5 C 2,7 C
01.12.2003 11:30 6,5 C 6,8 C 75 % 1008 hPa 0,0 l/m 4,2 m/s (1 Bft) O22.5 85 0,00 min 14,5 klux 2,4 C 0,9 C
01.12.2003 11:35 6,6 C 6,9 C 75 % 1008 hPa 0,0 l/m 2,7 m/s (1 Bft) O22.5 95 0,00 min 16,6 klux 2,5 C 4,0 C
01.12.2003 11:40 6,7 C 7,0 C 75 % 1008 hPa 0,0 l/m 2,8 m/s (1 Bft) O45 80 0,00 min 15,6 klux 2,6 C 3,9 C
01.12.2003 11:45 6,8 C 7,2 C 75 % 1008 hPa 0,0 l/m 3,4 m/s (1 Bft) O22.5 80 0,00 min 16,7 klux 2,7 C 2,8 C
01.12.2003 11:50 6,8 C 7,2 C 74 % 1008 hPa 0,0 l/m 3,5 m/s (1 Bft) O22.5 80 0,00 min 15,8 klux 2,5 C 2,5 C
01.12.2003 11:55 6,8 C 7,3 C 74 % 1008 hPa 0,0 l/m 3,8 m/s (1 Bft) O45 80 0,00 min 16,4 klux 2,5 C 1,9 C
01.12.2003 12:00 6,8 C 7,5 C 74 % 1008 hPa 0,0 l/m 2,7 m/s (1 Bft) O45 95 0,00 min 19,0 klux 2,5 C 4,2 C
01.12.2003 12:05 7,2 C 7,6 C 73 % 1008 hPa 0,0 l/m 3,8 m/s (1 Bft) O22.5 90 5,00 min 23,8 klux 2,7 C 2,5 C
01.12.2003 12:10 7,3 C 7,6 C 73 % 1008 hPa 0,0 l/m 2,5 m/s (1 Bft) O22.5 100 0,00 min 17,0 klux 2,8 C 5,3 C
01.12.2003 12:15 7,1 C 7,7 C 73 % 1008 hPa 0,0 l/m 2,1 m/s (1 Bft) O45 85 0,00 min 14,7 klux 2,6 C 6,1 C
01.12.2003 12:20 7,0 C 7,7 C 72 % 1008 hPa 0,0 l/m 4,5 m/s (1 Bft) O45 80 0,00 min 14,1 klux 2,3 C 0,9 C
01.12.2003 12:25 7,0 C 7,7 C 72 % 1008 hPa 0,0 l/m 4,6 m/s (1 Bft) O22.5 80 0,00 min 13,5 klux 2,3 C 0,8 C
01.12.2003 12:30 7,0 C 7,7 C 73 % 1008 hPa 0,0 l/m 4,1 m/s (1 Bft) O45 90 0,00 min 16,4 klux 2,5 C 1,5 C
01.12.2003 12:35 7,0 C 7,8 C 72 % 1008 hPa 0,0 l/m 5,8 m/s (2 Bft) O45 85 0,00 min 18,1 klux 2,3 C -0,9 C
01.12.2003 12:40 7,2 C 7,8 C 72 % 1008 hPa 0,0 l/m 6,4 m/s (2 Bft) O22.5 95 5,00 min 25,6 klux 2,5 C -1,4 C
01.12.2003 12:45 7,4 C 8,0 C 73 % 1008 hPa 0,0 l/m 4,0 m/s (1 Bft) O45 85 0,00 min 19,5 klux 2,9 C 2,3 C
01.12.2003 12:50 7,5 C 8,1 C 72 % 1008 hPa 0,0 l/m 3,9 m/s (1 Bft) O45 80 5,00 min 53,6 klux 2,8 C 2,5 C
01.12.2003 12:55 7,9 C 8,3 C 70 % 1008 hPa 0,0 l/m 4,9 m/s (1 Bft) O45 80 5,00 min 54,5 klux 2,8 C 1,5 C
01.12.2003 13:00 8,0 C 8,4 C 68 % 1008 hPa 0,0 l/m 6,1 m/s (2 Bft) O45 90 5,00 min 49,3 klux 2,5 C -0,0 C
01.12.2003 13:05 8,0 C 8,6 C 68 % 1008 hPa 0,0 l/m 3,1 m/s (1 Bft) O45 95 5,00 min 38,5 klux 2,5 C 4,6 C
01.12.2003 13:10 8,0 C 8,5 C 66 % 1008 hPa 0,0 l/m 4,4 m/s (1 Bft) O45 95 5,00 min 40,4 klux 2,0 C 2,4 C
01.12.2003 13:15 7,9 C 8,5 C 68 % 1008 hPa 0,0 l/m 3,7 m/s (1 Bft) O-SO45 105 5,00 min 33,9 klux 2,4 C 3,5 C
01.12.2003 13:20 7,8 C 8,5 C 67 % 1008 hPa 0,0 l/m 4,6 m/s (1 Bft) O22.5 95 5,00 min 37,7 klux 2,1 C 1,8 C
01.12.2003 13:25 7,9 C 8,5 C 68 % 1008 hPa 0,0 l/m 4,2 m/s (1 Bft) O45 90 5,00 min 41,5 klux 2,4 C 2,5 C
01.12.2003 13:30 7,6 C 8,5 C 68 % 1008 hPa 0,0 l/m 5,1 m/s (1 Bft) O-SO22.5 115 0,00 min 14,8 klux 2,1 C 0,8 C
01.12.2003 13:35 7,6 C 8,5 C 69 % 1008 hPa 0,0 l/m 6,1 m/s (2 Bft) O45 95 0,00 min 15,2 klux 2,3 C -0,5 C
01.12.2003 13:40 7,8 C 8,4 C 69 % 1007 hPa 0,0 l/m 5,4 m/s (1 Bft) O45 95 5,00 min 34,1 klux 2,5 C 0,6 C
01.12.2003 13:45 7,8 C 8,5 C 69 % 1007 hPa 0,0 l/m 5,3 m/s (1 Bft) O-SO22.5 115 5,00 min 36,8 klux 2,5 C 0,8 C
01.12.2003 13:50 8,1 C 8,6 C 68 % 1008 hPa 0,0 l/m 4,2 m/s (1 Bft) O45 90 5,00 min 35,3 klux 2,6 C 2,8 C
01.12.2003 13:55 8,1 C 8,6 C 68 % 1008 hPa 0,0 l/m 3,4 m/s (1 Bft) O-SO45 115 5,00 min 33,9 klux 2,6 C 4,2 C
01.12.2003 14:00 7,9 C 8,7 C 69 % 1008 hPa 0,0 l/m 3,3 m/s (1 Bft) O-SO45 110 5,00 min 18,8 klux 2,6 C 4,1 C
01.12.2003 14:05 7,8 C 8,7 C 70 % 1008 hPa 0,0 l/m 4,0 m/s (1 Bft) O-SO22.5 115 0,00 min 15,3 klux 2,7 C 2,7 C
01.12.2003 14:10 7,8 C 8,6 C 70 % 1008 hPa 0,0 l/m 4,8 m/s (1 Bft) O-SO45 110 0,00 min 13,7 klux 2,7 C 1,5 C
01.12.2003 14:15 7,7 C 8,6 C 71 % 1008 hPa 0,0 l/m 3,0 m/s (1 Bft) O-SO22.5 110 0,00 min 11,7 klux 2,8 C 4,5 C
01.12.2003 14:20 7,7 C 8,5 C 71 % 1008 hPa 0,0 l/m 3,1 m/s (1 Bft) O-SO45 110 0,00 min 11,7 klux 2,8 C 4,3 C
01.12.2003 14:25 7,8 C 8,5 C 71 % 1008 hPa 0,0 l/m 2,7 m/s (1 Bft) O22.5 90 0,00 min 11,8 klux 2,9 C 5,3 C
01.12.2003 14:30 7,9 C 8,5 C 70 % 1008 hPa 0,0 l/m 3,6 m/s (1 Bft) O22.5 90 0,00 min 12,1 klux 2,8 C 3,6 C
01.12.2003 14:35 8,0 C 8,5 C 70 % 1008 hPa 0,0 l/m 2,2 m/s (1 Bft) O67.5 85 5,00 min 15,5 klux 2,9 C 6,8 C
01.12.2003 14:40 8,1 C 8,5 C 69 % 1008 hPa 0,0 l/m 2,7 m/s (1 Bft) O45 90 5,00 min 24,3 klux 2,8 C 5,8 C
01.12.2003 14:45 8,1 C 8,6 C 69 % 1008 hPa 0,0 l/m 3,4 m/s (1 Bft) O22.5 90 5,00 min 14,7 klux 2,8 C 4,3 C
01.12.2003 14:50 8,0 C 8,6 C 69 % 1007 hPa 0,0 l/m 5,4 m/s (1 Bft) O22.5 80 5,00 min 13,7 klux 2,7 C 0,9 C
01.12.2003 14:55 7,9 C 8,6 C 71 % 1007 hPa 0,0 l/m 4,8 m/s (1 Bft) O45 90 5,00 min 13,3 klux 3,0 C 1,6 C
01.12.2003 15:00 7,9 C 8,5 C 71 % 1007 hPa 0,0 l/m 4,6 m/s (1 Bft) O45 90 5,00 min 13,8 klux 3,0 C 1,9 C
01.12.2003 15:05 7,9 C 8,5 C 71 % 1007 hPa 0,0 l/m 6,0 m/s (2 Bft) O45 100 5,00 min 15,1 klux 3,0 C 0,0 C
01.12.2003 15:10 8,0 C 8,4 C 71 % 1008 hPa 0,0 l/m 4,8 m/s (1 Bft) O22.5 95 5,00 min 15,4 klux 3,1 C 1,7 C
01.12.2003 15:15 8,0 C 8,4 C 70 % 1008 hPa 0,0 l/m 4,4 m/s (1 Bft) O45 90 5,00 min 10,9 klux 2,9 C 2,3 C
01.12.2003 15:20 7,9 C 8,3 C 72 % 1008 hPa 0,0 l/m 2,8 m/s (1 Bft) O45 85 5,00 min 9,6 klux 3,2 C 5,2 C
01.12.2003 15:25 7,8 C 8,2 C 72 % 1008 hPa 0,0 l/m 3,6 m/s (1 Bft) O45 85 0,00 min 8,42 klux 3,1 C 3,4 C
01.12.2003 15:30 7,6 C 8,2 C 72 % 1008 hPa 0,0 l/m 4,4 m/s (1 Bft) O22.5 100 5,00 min 12,1 klux 2,9 C 1,9 C
01.12.2003 15:35 7,7 C 8,1 C 72 % 1008 hPa 0,0 l/m 3,4 m/s (1 Bft) O22.5 100 5,00 min 14,6 klux 3,0 C 3,6 C
01.12.2003 15:40 7,7 C 8,0 C 72 % 1008 hPa 0,0 l/m 2,7 m/s (1 Bft) O-SO45 105 5,00 min 14,4 klux 3,0 C 5,2 C
01.12.2003 15:45 7,7 C 7,9 C 71 % 1008 hPa 0,0 l/m 3,9 m/s (1 Bft) O45 95 5,00 min 10,3 klux 2,8 C 2,7 C
01.12.2003 15:50 7,7 C 7,9 C 71 % 1008 hPa 0,0 l/m 4,8 m/s (1 Bft) O45 90 5,00 min 9,0 klux 2,8 C 1,4 C
01.12.2003 15:55 7,6 C 7,8 C 72 % 1008 hPa 0,0 l/m 3,7 m/s (1 Bft) O-SO45 105 5,00 min 5,18 klux 2,9 C 3,0 C
01.12.2003 16:00 7,5 C 7,7 C 72 % 1008 hPa 0,0 l/m 3,7 m/s (1 Bft) O-SO22.5 115 5,00 min 4,14 klux 2,8 C 3,0 C
01.12.2003 16:05 7,4 C 7,6 C 72 % 1008 hPa 0,0 l/m 3,1 m/s (1 Bft) O45 90 5,00 min 3,32 klux 2,7 C 4,0 C
01.12.2003 16:10 7,3 C 7,5 C 72 % 1008 hPa 0,0 l/m 4,4 m/s (1 Bft) O45 90 5,00 min 2,33 klux 2,6 C 1,4 C
01.12.2003 16:15 7,1 C 7,3 C 73 % 1008 hPa 0,0 l/m 3,4 m/s (1 Bft) O45 100 0,00 min 1,45 klux 2,6 C 3,1 C
01.12.2003 16:20 6,7 C 7,3 C 74 % 1008 hPa 0,0 l/m 2,6 m/s (1 Bft) O22.5 100 0,00 min 948 lux 2,4 C 4,4 C
01.12.2003 16:25 6,5 C 7,1 C 75 % 1008 hPa 0,0 l/m 1,0 m/s (0 Bft) SO22.5 125 0,00 min 548 lux 2,4 C 6,5 C
01.12.2003 16:30 6,6 C 6,9 C 76 % 1009 hPa 0,0 l/m 1,9 m/s (1 Bft) O22.5 100 0,00 min 339 lux 2,7 C 6,3 C
01.12.2003 16:35 6,5 C 6,7 C 76 % 1009 hPa 0,0 l/m 2,1 m/s (1 Bft) O67.5 85 0,00 min 214 lux 2,6 C 5,6 C
01.12.2003 16:40 6,4 C 6,6 C 76 % 1009 hPa 0,0 l/m 1,6 m/s (1 Bft) O22.5 85 0,00 min 133 lux 2,5 C 6,4 C
01.12.2003 16:45 6,2 C 6,6 C 76 % 1009 hPa 0,0 l/m 1,9 m/s (1 Bft) NO22.5 55 0,00 min 77 lux 2,3 C 5,7 C
01.12.2003 16:50 6,0 C 6,3 C 77 % 1009 hPa 0,0 l/m 1,0 m/s (0 Bft) O-NO22.5 60 0,00 min 39 lux 2,3 C 6,0 C
01.12.2003 16:55 6,0 C 6,3 C 78 % 1009 hPa 0,0 l/m 2,8 m/s (1 Bft) O-NO22.5 60 0,00 min 39 lux 2,5 C 3,1 C
01.12.2003 17:00 5,8 C 6,2 C 79 % 1009 hPa 0,0 l/m 2,6 m/s (1 Bft) NO45 55 0,00 min 16 lux 2,4 C 3,4 C
01.12.2003 17:05 5,6 C 5,9 C 79 % 1009 hPa 0,0 l/m 1,5 m/s (1 Bft) O22.5 80 0,00 min 9 lux 2,3 C 5,6 C
01.12.2003 17:10 5,8 C 5,9 C 80 % 1009 hPa 0,0 l/m 4,0 m/s (1 Bft) O-NO45 70 0,00 min 4 lux 2,6 C 0,3 C
01.12.2003 17:15 5,7 C 5,8 C 79 % 1009 hPa 0,0 l/m 3,3 m/s (1 Bft) O-NO45 60 0,00 min 0 lux 2,3 C 1,6 C
01.12.2003 17:20 5,7 C 5,7 C 79 % 1009 hPa 0,0 l/m 3,2 m/s (1 Bft) O22.5 90 0,00 min 0 lux 2,3 C 1,9 C
01.12.2003 17:25 5,6 C 5,7 C 79 % 1009 hPa 0,0 l/m 3,3 m/s (1 Bft) O-NO45 70 0,00 min 0 lux 2,3 C 1,5 C
01.12.2003 17:30 5,5 C 5,7 C 80 % 1009 hPa 0,0 l/m 3,1 m/s (1 Bft) O-NO22.5 75 0,00 min 0 lux 2,3 C 1,8 C
01.12.2003 17:35 5,4 C 5,6 C 80 % 1009 hPa 0,0 l/m 3,4 m/s (1 Bft) O-NO22.5 65 0,00 min 0 lux 2,2 C 1,0 C
01.12.2003 17:40 5,7 C 5,6 C 80 % 1009 hPa 0,0 l/m 3,8 m/s (1 Bft) O22.5 80 0,00 min 0 lux 2,5 C 0,7 C
01.12.2003 17:45 5,8 C 5,6 C 79 % 1009 hPa 0,0 l/m 4,5 m/s (1 Bft) O-NO22.5 75 0,00 min 0 lux 2,4 C -0,5 C
01.12.2003 17:50 5,8 C 5,6 C 78 % 1009 hPa 0,0 l/m 4,2 m/s (1 Bft) O-NO45 70 0,00 min 0 lux 2,3 C -0,0 C
01.12.2003 17:55 6,0 C 5,6 C 76 % 1009 hPa 0,0 l/m 4,3 m/s (1 Bft) O-NO45 70 0,00 min 0 lux 2,1 C -0,0 C
01.12.2003 18:00 5,8 C 5,5 C 77 % 1009 hPa 0,0 l/m 2,8 m/s (1 Bft) O22.5 95 0,00 min 0 lux 2,1 C 3,0 C
01.12.2003 18:05 5,8 C 5,5 C 76 % 1009 hPa 0,0 l/m 2,6 m/s (1 Bft) O22.5 80 0,00 min 0 lux 1,9 C 3,3 C
01.12.2003 18:10 5,6 C 5,5 C 76 % 1009 hPa 0,0 l/m 2,7 m/s (1 Bft) O-NO22.5 75 0,00 min 0 lux 1,7 C 2,9 C
01.12.2003 18:15 5,7 C 5,4 C 76 % 1009 hPa 0,0 l/m 2,9 m/s (1 Bft) O-NO45 75 0,00 min 0 lux 1,8 C 2,5 C
01.12.2003 18:20 5,6 C 5,4 C 76 % 1009 hPa 0,0 l/m 3,1 m/s (1 Bft) O-NO22.5 65 0,00 min 0 lux 1,7 C 1,9 C
01.12.2003 18:25 5,6 C 5,3 C 75 % 1009 hPa 0,0 l/m 2,3 m/s (1 Bft) O-NO22.5 75 0,00 min 0 lux 1,5 C 4,2 C
01.12.2003 18:30 5,3 C 5,3 C 76 % 1009 hPa 0,0 l/m 3,6 m/s (1 Bft) O-NO22.5 70 0,00 min 0 lux 1,4 C 0,5 C
01.12.2003 18:35 5,2 C 5,2 C 76 % 1009 hPa 0,0 l/m 3,0 m/s (1 Bft) O-NO22.5 60 0,00 min 0 lux 1,3 C 1,7 C
01.12.2003 18:40 5,2 C 5,1 C 76 % 1009 hPa 0,0 l/m 1,9 m/s (1 Bft) O-NO22.5 70 0,00 min 0 lux 1,3 C 4,8 C
01.12.2003 18:45 5,0 C 5,1 C 77 % 1009 hPa 0,0 l/m 0,9 m/s (0 Bft) O22.5 80 0,00 min 0 lux 1,3 C 5,0 C
01.12.2003 18:50 4,6 C 4,9 C 78 % 1009 hPa 0,0 l/m 0,0 m/s (0 Bft) O-SO 110 0,00 min 0 lux 1,1 C 4,6 C
01.12.2003 18:55 4,5 C 4,8 C 79 % 1009 hPa 0,0 l/m 1,1 m/s (1 Bft) O22.5 85 0,00 min 0 lux 1,2 C 4,5 C
01.12.2003 19:00 4,5 C 4,6 C 80 % 1009 hPa 0,0 l/m 1,4 m/s (1 Bft) O-NO45 70 0,00 min 0 lux 1,4 C 4,5 C
01.12.2003 19:05 4,5 C 4,5 C 80 % 1009 hPa 0,0 l/m 1,8 m/s (1 Bft) O45 80 0,00 min 0 lux 1,4 C 4,5 C
01.12.2003 19:10 4,5 C 4,5 C 80 % 1009 hPa 0,0 l/m 2,6 m/s (1 Bft) O-NO45 75 0,00 min 0 lux 1,4 C 2,0 C
01.12.2003 19:15 4,3 C 4,4 C 80 % 1010 hPa 0,0 l/m 1,5 m/s (1 Bft) O22.5 80 0,00 min 0 lux 1,2 C 4,3 C
01.12.2003 19:20 4,6 C 4,4 C 81 % 1010 hPa 0,0 l/m 0,3 m/s (0 Bft) O22.5 85 0,00 min 0 lux 1,6 C 4,6 C
01.12.2003 19:25 4,5 C 4,3 C 80 % 1009 hPa 0,0 l/m 1,4 m/s (1 Bft) O 90 0,00 min 0 lux 1,4 C 4,5 C
01.12.2003 19:30 4,2 C 4,2 C 80 % 1009 hPa 0,0 l/m 0,7 m/s (0 Bft) SO 125 0,00 min 0 lux 1,1 C 4,2 C
01.12.2003 19:35 3,8 C 4,2 C 82 % 1009 hPa 0,0 l/m 0,0 m/s (0 Bft) SO 125 0,00 min 0 lux 1,0 C 3,8 C
01.12.2003 19:40 3,8 C 4,1 C 83 % 1009 hPa 0,0 l/m 1,7 m/s (1 Bft) O22.5 95 0,00 min 0 lux 1,2 C 3,8 C
01.12.2003 19:45 3,6 C 4,1 C 84 % 1009 hPa 0,0 l/m 1,3 m/s (1 Bft) O22.5 95 0,00 min 0 lux 1,2 C 3,6 C
01.12.2003 19:50 3,7 C 4,0 C 84 % 1009 hPa 0,0 l/m 1,8 m/s (1 Bft) O-SO22.5 120 0,00 min 0 lux 1,3 C 3,7 C
01.12.2003 19:55 3,7 C 4,0 C 84 % 1009 hPa 0,0 l/m 0,1 m/s (0 Bft) SO 130 0,00 min 0 lux 1,3 C 3,7 C
01.12.2003 20:00 3,5 C 4,0 C 84 % 1010 hPa 0,0 l/m 0,1 m/s (0 Bft) O22.5 85 0,00 min 0 lux 1,1 C 3,5 C
01.12.2003 20:05 3,5 C 4,0 C 85 % 1010 hPa 0,0 l/m 0,0 m/s (0 Bft) O-SO 115 0,00 min 0 lux 1,2 C 3,5 C
01.12.2003 20:10 3,5 C 4,0 C 85 % 1010 hPa 0,0 l/m 0,0 m/s (0 Bft) O-SO 115 0,00 min 0 lux 1,2 C 3,5 C
01.12.2003 20:15 3,5 C 4,0 C 85 % 1010 hPa 0,0 l/m 0,0 m/s (0 Bft) O-SO 115 0,00 min 0 lux 1,2 C 3,5 C
01.12.2003 20:20 3,6 C 4,0 C 85 % 1010 hPa 0,0 l/m 0,0 m/s (0 Bft) O-SO 115 0,00 min 0 lux 1,3 C 3,6 C
01.12.2003 20:25 3,8 C 4,1 C 86 % 1009 hPa 0,0 l/m 1,8 m/s (1 Bft) O-NO22.5 65 0,00 min 0 lux 1,7 C 3,7 C
01.12.2003 20:30 4,3 C 4,2 C 85 % 1009 hPa 0,0 l/m 2,1 m/s (1 Bft) O-NO22.5 75 0,00 min 0 lux 2,0 C 3,4 C
01.12.2003 20:35 4,2 C 4,2 C 84 % 1010 hPa 0,0 l/m 0,1 m/s (0 Bft) O-SO22.5 105 0,00 min 0 lux 1,7 C 4,2 C
01.12.2003 20:40 3,9 C 4,2 C 84 % 1010 hPa 0,0 l/m 0,0 m/s (0 Bft) O-SO 115 0,00 min 0 lux 1,4 C 3,9 C
01.12.2003 20:45 3,7 C 4,2 C 84 % 1010 hPa 0,0 l/m 1,0 m/s (0 Bft) S-SW 195 0,00 min 0 lux 1,3 C 3,7 C
01.12.2003 20:50 3,7 C 4,2 C 84 % 1010 hPa 0,0 l/m 0,5 m/s (0 Bft) W-NW 285 0,00 min 0 lux 1,3 C 3,7 C
01.12.2003 20:55 4,0 C 4,2 C 84 % 1010 hPa 0,0 l/m 0,3 m/s (0 Bft) O-NO22.5 60 0,00 min 0 lux 1,5 C 4,0 C
01.12.2003 21:00 3,5 C 4,2 C 85 % 1010 hPa 0,0 l/m 0,1 m/s (0 Bft) O-NO 60 0,00 min 0 lux 1,2 C 3,5 C
01.12.2003 21:05 4,3 C 4,2 C 85 % 1010 hPa 0,0 l/m 0,2 m/s (0 Bft) O-NO 60 0,00 min 0 lux 2,0 C 4,3 C
01.12.2003 21:10 4,2 C 4,2 C 84 % 1010 hPa 0,0 l/m 2,4 m/s (1 Bft) O-NO22.5 70 0,00 min 0 lux 1,7 C 2,3 C
01.12.2003 21:15 4,2 C 4,2 C 84 % 1010 hPa 0,0 l/m 1,4 m/s (1 Bft) NO22.5 50 0,00 min 0 lux 1,7 C 4,2 C
01.12.2003 21:20 4,4 C 4,2 C 84 % 1010 hPa 0,0 l/m 1,2 m/s (1 Bft) O-SO45 105 0,00 min 0 lux 1,9 C 4,4 C
01.12.2003 21:25 3,9 C 4,2 C 84 % 1010 hPa 0,0 l/m 1,4 m/s (1 Bft) O45 95 0,00 min 0 lux 1,4 C 3,9 C
01.12.2003 21:30 4,0 C 4,1 C 84 % 1010 hPa 0,0 l/m 1,5 m/s (1 Bft) NO22.5 55 0,00 min 0 lux 1,5 C 4,0 C
01.12.2003 21:35 4,1 C 4,1 C 85 % 1010 hPa 0,0 l/m 1,6 m/s (1 Bft) O-NO22.5 75 0,00 min 0 lux 1,8 C 4,1 C
01.12.2003 21:40 4,4 C 4,2 C 85 % 1010 hPa 0,0 l/m 1,8 m/s (1 Bft) O45 85 0,00 min 0 lux 2,1 C 4,4 C
01.12.2003 21:45 4,4 C 4,2 C 84 % 1010 hPa 0,0 l/m 1,4 m/s (1 Bft) O22.5 85 0,00 min 0 lux 1,9 C 4,4 C
01.12.2003 21:50 4,4 C 4,3 C 84 % 1010 hPa 0,0 l/m 1,3 m/s (1 Bft) O22.5 90 0,00 min 0 lux 1,9 C 4,4 C
01.12.2003 21:55 4,4 C 4,3 C 84 % 1010 hPa 0,0 l/m 0,0 m/s (0 Bft) O-SO 115 0,00 min 0 lux 1,9 C 4,4 C
01.12.2003 22:00 4,2 C 4,4 C 84 % 1010 hPa 0,0 l/m 0,0 m/s (0 Bft) SW 230 0,00 min 0 lux 1,7 C 4,2 C
01.12.2003 22:05 4,2 C 4,4 C 84 % 1010 hPa 0,0 l/m 0,0 m/s (0 Bft) SW 230 0,00 min 0 lux 1,7 C 4,2 C
01.12.2003 22:10 4,2 C 4,4 C 84 % 1010 hPa 0,0 l/m 0,0 m/s (0 Bft) SW 230 0,00 min 0 lux 1,7 C 4,2 C
01.12.2003 22:15 4,1 C 4,4 C 84 % 1010 hPa 0,0 l/m 0,0 m/s (0 Bft) SW 230 0,00 min 0 lux 1,6 C 4,1 C
01.12.2003 22:20 4,2 C 4,5 C 84 % 1010 hPa 0,0 l/m 0,0 m/s (0 Bft) SW 230 0,00 min 0 lux 1,7 C 4,2 C
01.12.2003 22:25 4,2 C 4,5 C 84 % 1010 hPa 0,0 l/m 0,0 m/s (0 Bft) SW 230 0,00 min 0 lux 1,7 C 4,2 C
01.12.2003 22:30 4,3 C 4,6 C 84 % 1010 hPa 0,0 l/m 0,0 m/s (0 Bft) SW 230 0,00 min 0 lux 1,8 C 4,3 C
01.12.2003 22:35 4,3 C 4,6 C 84 % 1010 hPa 0,0 l/m 0,0 m/s (0 Bft) SW 230 0,00 min 0 lux 1,8 C 4,3 C
01.12.2003 22:40 4,4 C 4,6 C 84 % 1010 hPa 0,0 l/m 0,0 m/s (0 Bft) SW 225 0,00 min 0 lux 1,9 C 4,4 C
01.12.2003 22:45 4,3 C 4,6 C 84 % 1010 hPa 0,0 l/m 0,0 m/s (0 Bft) SW 215 0,00 min 0 lux 1,8 C 4,3 C
01.12.2003 22:50 4,2 C 4,7 C 84 % 1011 hPa 0,0 l/m 0,1 m/s (0 Bft) SW 225 0,00 min 0 lux 1,7 C 4,2 C
01.12.2003 22:55 4,1 C 4,6 C 84 % 1011 hPa 0,0 l/m 0,0 m/s (0 Bft) SW 225 0,00 min 0 lux 1,6 C 4,1 C
01.12.2003 23:00 4,1 C 4,6 C 85 % 1011 hPa 0,0 l/m 0,0 m/s (0 Bft) SW 225 0,00 min 0 lux 1,8 C 4,1 C
01.12.2003 23:05 4,1 C 4,6 C 85 % 1011 hPa 0,0 l/m 0,0 m/s (0 Bft) SW 225 0,00 min 0 lux 1,8 C 4,1 C
01.12.2003 23:10 4,0 C 4,6 C 85 % 1011 hPa 0,0 l/m 0,0 m/s (0 Bft) SW 225 0,00 min 0 lux 1,7 C 4,0 C
01.12.2003 23:15 4,0 C 4,5 C 85 % 1010 hPa 0,0 l/m 0,0 m/s (0 Bft) SW 225 0,00 min 0 lux 1,7 C 4,0 C
01.12.2003 23:20 4,0 C 4,5 C 85 % 1010 hPa 0,0 l/m 0,0 m/s (0 Bft) SW 225 0,00 min 0 lux 1,7 C 4,0 C
01.12.2003 23:25 4,0 C 4,5 C 85 % 1011 hPa 0,0 l/m 0,0 m/s (0 Bft) SW 225 0,00 min 0 lux 1,7 C 4,0 C
01.12.2003 23:30 4,0 C 4,5 C 85 % 1011 hPa 0,0 l/m 0,0 m/s (0 Bft) SW 225 0,00 min 0 lux 1,7 C 4,0 C
01.12.2003 23:35 4,0 C 4,5 C 85 % 1011 hPa 0,0 l/m 0,0 m/s (0 Bft) SW 225 0,00 min 0 lux 1,7 C 4,0 C
01.12.2003 23:40 4,0 C 4,5 C 85 % 1011 hPa 0,0 l/m 0,0 m/s (0 Bft) SW 225 0,00 min 0 lux 1,7 C 4,0 C
01.12.2003 23:45 4,0 C 4,5 C 86 % 1011 hPa 0,0 l/m 0,0 m/s (0 Bft) SW 225 0,00 min 0 lux 1,9 C 4,0 C
01.12.2003 23:50 4,2 C 4,6 C 86 % 1011 hPa 0,0 l/m 0,0 m/s (0 Bft) SW 225 0,00 min 0 lux 2,1 C 4,2 C
01.12.2003 23:55 4,2 C 4,6 C 85 % 1011 hPa 0,0 l/m 0,0 m/s (0 Bft) SW 225 0,00 min 0 lux 1,9 C 4,2 C
_ Min-Zeit 20:00 19:50 13:10 03:40 - 07:05 - - - - 19:35 01:55
Minimum _ 3,5 C 4,0 C 66 % 1006 hPa - 0,0 m/s (0 Bft) - - - - 1,0 C -3,1 C
_ Max-Zeit 13:50 14:00 00:00 22:50 00:00 12:40 - - 12:05 12:55 00:00 14:35
Maximum _ 8,1 C 8,7 C 93 % 1011 hPa 0,0 l/m 6,4 m/s
O (4 Bft)
- - 5,00 min 54,5 klux 4,2 C 6,8 C
Durchschnitt _ 5,4 C 5,8 C 83 % 1008 hPa #0,0 l/m 2,5 m/s (2 Bft) O - #2:50 h 4,96 klux 2,7 C 2,8 C